To NAV CANADA Home Page Login to a new session Search on AWWS site Feedback and Comments Disclaimer Vers la page française équivalente Tips FAQ What's new on the site To the Forecasts and Observations / NOTAM section To "File a Flight Plan" website Publications and other links Update of the User's profile FIC Telephone Numbers My Weather Data Folder Route Weather Data Regional Weather Data Local Weather Data To the Forecasts and Observations / NOTAM section
Request Generated 04/24/2014 at 21:16:04 UTC . Weather information available at that time is displayed.

METAR/TAF

FORT ST. JOHN/BC    

METAR CYXJ 242100Z 34009KT 15SM OVC018 02/M02 A2973 RMK SC8 SLP102=
METAR CYXJ 242000Z 31007KT 15SM OVC019 02/M02 A2973 RMK SC8 SLP100=
METAR CYXJ 241900Z 32009KT 15SM BKN020 01/M03 A2973 RMK SC7 SLP098=

TAF CYXJ 241838Z 2419/2507 31010KT P6SM BKN030 TEMPO 2419/2507 BKN020
BECMG 2422/2424 05008KT
RMK NXT FCST BY 250100Z=
Your time UTC time
Weather data provided by Environment Canada and NAV CANADA